Terminal Aerodrome Forecast
Issued by NWS St Louis, MO

Home | Current Version | Previous Version | Graphics & Text | Print | Product List | Glossary On
Versions: 1 2 3 4 5 6 7 8 9 10 11 12 13 14 15 16 17 18 19 20 21 22 23 24 25 26 27 28 29
000
FTUS43 KLSX 270520
TAFSTL
TAF
KSTL 270520Z 2706/2812 15004KT P6SM BKN050
     FM271800 16006KT P6SM SCT110
     FM272300 15009KT P6SM BKN120
     FM280400 14009KT P6SM BKN025=

USA.gov is the U.S. government's official web portal to all federal, state and local government web resources and services.